Time;durP1;ratioP1;P1;durP2;ratioP2;P2;SDS_P1;SDS_P2;PMS_P1;PMS_P2;Temp;Humidity;BMP_temperature;BMP_pressure;BME280_temperature;BME280_humidity;BME280_pressure;Samples;Min_cycle;Max_cycle;Signal;HPM_P1;HPM_P2
2023/08/05 04:48:26;;;;;;;8.02;4.80;;;;;;;;;;5135857;27;1282439;-90
2023/08/05 04:51:10;;;;;;;8.02;4.75;;;;;;;;;;5157213;27;20451;-90
2023/08/05 04:59:39;;;;;;;8.45;5.10;;;;;;;;;;5126896;27;1284620;-92
2023/08/05 05:02:24;;;;;;;9.05;4.85;;;14.20;99.90;;;;;;5171428;27;20041;-90
2023/08/05 05:05:08;;;;;;;7.57;4.93;;;14.20;99.90;;;;;;5171553;27;20063;-92
2023/08/05 05:15:05;;;;;;;9.07;5.28;;;13.90;99.90;;;;;;5109564;27;20162;-91
2023/08/05 05:17:50;;;;;;;8.50;5.00;;;14.20;99.90;;;;;;5109232;28;20055;-91
2023/08/05 05:20:35;;;;;;;9.23;4.97;;;;;;;;;;5094218;28;20039;-87
2023/08/05 05:27:54;;;;;;;7.47;4.68;;;;;;;;;;5144832;27;20638;-88
2023/08/05 05:32:59;;;;;;;7.18;4.53;;;;;;;;;;5117400;27;1277517;-91
2023/08/05 05:35:43;;;;;;;7.35;4.68;;;14.70;99.90;;;;;;5134326;27;20336;-92
2023/08/05 05:38:28;;;;;;;11.48;5.43;;;;;;;;;;5144724;27;20490;-90
2023/08/05 05:41:13;;;;;;;10.00;5.10;;;;;;;;;;5155537;27;20045;-90
2023/08/05 05:43:59;;;;;;;11.10;5.32;;;;;;;;;;5170879;27;20587;-91
2023/08/05 05:46:44;;;;;;;9.60;5.13;;;;;;;;;;5155104;27;20057;-91
2023/08/05 05:49:28;;;;;;;8.57;5.10;;;14.70;99.90;;;;;;5171138;27;20417;-90
2023/08/05 05:52:16;;;;;;;11.50;5.13;;;14.60;99.90;;;;;;5155467;27;20653;-91
2023/08/05 05:55:02;;;;;;;8.50;4.45;;;;;;;;;;5154715;27;20033;-90
2023/08/05 05:57:46;;;;;;;10.43;4.20;;;14.90;99.90;;;;;;5154683;27;20037;-91
2023/08/05 06:00:31;;;;;;;7.22;4.00;;;;;;;;;;5157765;27;20034;-92
2023/08/05 06:03:15;;;;;;;9.95;4.30;;;15.00;99.90;;;;;;5150073;27;20411;-91
2023/08/05 06:06:00;;;;;;;12.23;4.65;;;;;;;;;;5162565;27;20046;-91
2023/08/05 06:11:14;;;;;;;7.50;4.18;;;;;;;;;;5086739;27;20447;-89
2023/08/05 06:13:59;;;;;;;9.60;4.18;;;;;;;;;;5061080;28;20425;-91
2023/08/05 06:16:43;;;;;;;8.02;4.15;;;;;;;;;;5064813;28;20562;-86
2023/08/05 06:19:28;;;;;;;9.85;3.92;;;;;;;;;;5057949;28;20044;-90
2023/08/05 06:22:12;;;;;;;5.85;3.40;;;;;;;;;;5054663;28;20045;-92
2023/08/05 06:27:20;;;;;;;5.00;3.15;;;;;;;;;;5083043;27;20409;-88
2023/08/05 06:30:05;;;;;;;6.25;3.20;;;;;;;;;;5081012;28;20044;-90
2023/08/05 06:32:50;;;;;;;5.97;3.42;;;;;;;;;;5048764;28;20048;-89
2023/08/05 06:35:35;;;;;;;6.43;2.95;;;;;;;;;;5048898;28;20067;-92
2023/08/05 06:38:20;;;;;;;4.78;2.65;;;;;;;;;;5057440;28;20075;-92
2023/08/05 06:41:05;;;;;;;7.63;3.22;;;;;;;;;;5048277;28;20071;-91
2023/08/05 06:43:50;;;;;;;6.85;2.83;;;;;;;;;;5048301;28;20496;-92
2023/08/05 06:46:34;;;;;;;6.05;2.80;;;;;;;;;;5048894;28;20444;-93
2023/08/05 06:49:19;;;;;;;4.72;2.90;;;;;;;;;;5048766;28;20041;-92
2023/08/05 06:52:04;;;;;;;3.85;2.60;;;;;;;;;;5047948;28;20524;-89
2023/08/05 06:54:49;;;;;;;7.38;2.90;;;;;;;;;;5047937;28;20060;-88
2023/08/05 06:57:33;;;;;;;5.78;2.80;;;;;;;;;;5061244;28;20036;-89
2023/08/05 07:00:18;;;;;;;5.13;3.00;;;;;;;;;;5048348;28;20063;-91
2023/08/05 07:03:02;;;;;;;5.10;2.67;;;;;;;;;;5048061;28;20087;-87
2023/08/05 07:05:48;;;;;;;4.60;2.30;;;;;;;;;;5065800;28;20060;-87
2023/08/05 07:08:33;;;;;;;4.65;2.60;;;;;;;;;;5087421;28;20171;-90
2023/08/05 07:11:17;;;;;;;7.55;2.80;;;17.20;99.90;;;;;;5048149;28;20087;-89
2023/08/05 07:14:02;;;;;;;4.32;2.72;;;;;;;;;;5039492;28;20044;-90
2023/08/05 07:16:46;;;;;;;4.22;2.85;;;;;;;;;;5050714;28;20036;-90
2023/08/05 07:19:31;;;;;;;5.35;2.88;;;;;;;;;;5057143;28;20086;-90
2023/08/05 07:22:15;;;;;;;7.57;3.20;;;;;;;;;;5048546;28;20031;-91
2023/08/05 07:25:00;;;;;;;6.40;2.92;;;;;;;;;;5047090;28;20040;-92
2023/08/05 07:27:44;;;;;;;6.53;2.97;;;;;;;;;;5048137;28;20056;-91
2023/08/05 07:30:29;;;;;;;10.95;3.63;;;;;;;;;;5047594;28;20091;-92
2023/08/05 07:33:14;;;;;;;6.65;2.88;;;;;;;;;;5060614;28;20032;-92
2023/08/05 07:36:07;;;;;;;9.85;3.42;;;;;;;;;;5048215;28;20055;-92
2023/08/05 07:38:54;;;;;;;6.07;3.15;;;;;;;;;;5036594;28;20094;-90
2023/08/05 07:41:38;;;;;;;5.50;2.75;;;;;;;;;;5042526;28;20144;-90
2023/08/05 07:44:23;;;;;;;5.68;3.50;;;;;;;;;;5038711;28;20040;-90
2023/08/05 07:47:09;;;;;;;6.57;2.70;;;;;;;;;;5040543;28;20044;-91
2023/08/05 07:49:53;;;;;;;8.57;3.35;;;;;;;;;;5034174;28;20106;-92
2023/08/05 07:52:38;;;;;;;5.85;2.90;;;;;;;;;;5046807;28;20076;-92
2023/08/05 07:55:25;;;;;;;5.75;2.90;;;;;;;;;;5034202;28;20048;-90
2023/08/05 07:58:10;;;;;;;6.50;3.25;;;;;;;;;;5036480;28;20556;-88
2023/08/05 08:03:29;;;;;;;6.43;3.08;;;;;;;;;;5138920;27;1264630;-89
2023/08/05 08:06:15;;;;;;;7.40;3.10;;;;;;;;;;5157528;27;20539;-90
2023/08/05 08:08:59;;;;;;;6.05;2.60;;;17.90;99.90;;;;;;5143630;27;20037;-86
2023/08/05 08:11:44;;;;;;;6.47;2.72;;;;;;;;;;5137029;27;20095;-89
2023/08/05 08:14:29;;;;;;;6.03;3.03;;;;;;;;;;5163317;27;20040;-89
2023/08/05 08:17:13;;;;;;;8.43;2.80;;;17.90;99.90;;;;;;5154186;27;20078;-88
2023/08/05 08:19:57;;;;;;;4.30;2.78;;;;;;;;;;5155050;27;20531;-89
2023/08/05 08:22:42;;;;;;;5.03;2.53;;;;;;;;;;5137267;27;20045;-89
2023/08/05 08:25:26;;;;;;;4.75;2.47;;;;;;;;;;5154576;27;20089;-88
2023/08/05 08:28:11;;;;;;;5.20;2.90;;;;;;;;;;5154222;27;20544;-89
2023/08/05 08:30:57;;;;;;;4.63;2.65;;;17.70;99.90;;;;;;5166444;27;20489;-90
2023/08/05 08:33:41;;;;;;;5.28;2.80;;;;;;;;;;5153839;27;20045;-90
2023/08/05 08:36:26;;;;;;;5.32;2.85;;;;;;;;;;5158397;27;20065;-90
2023/08/05 08:39:11;;;;;;;8.88;2.65;;;;;;;;;;5165247;27;20512;-89
2023/08/05 08:41:56;;;;;;;4.00;2.67;;;;;;;;;;5166031;27;20038;-89
2023/08/05 08:44:42;;;;;;;4.63;2.78;;;18.60;99.90;;;;;;5134305;27;20041;-89
2023/08/05 08:47:27;;;;;;;6.18;3.00;;;18.90;99.90;;;;;;5141488;27;20083;-87
2023/08/05 08:54:58;;;;;;;5.43;2.70;;;;;;;;;;5134248;27;1281499;-88
2023/08/05 08:57:42;;;;;;;5.75;2.92;;;;;;;;;;5129090;27;20562;-88
2023/08/05 09:00:27;;;;;;;7.78;2.95;;;;;;;;;;5170572;27;20413;-88
2023/08/05 09:03:13;;;;;;;8.02;2.85;;;19.30;99.90;;;;;;5167194;27;20045;-87
2023/08/05 09:10:50;;;;;;;5.07;2.88;;;19.10;99.90;;;;;;5137601;27;1291258;-89
2023/08/05 09:13:34;;;;;;;7.00;2.58;;;;;;;;;;5151576;27;20045;-89
2023/08/05 09:16:19;;;;;;;4.78;3.13;;;;;;;;;;5163449;27;20075;-89
2023/08/05 09:19:04;;;;;;;6.00;2.72;;;;;;;;;;5165695;27;20041;-91
2023/08/05 09:21:50;;;;;;;3.90;2.60;;;;;;;;;;5140876;27;20038;-91
2023/08/05 09:24:35;;;;;;;6.13;2.85;;;;;;;;;;5155686;27;20539;-90
2023/08/05 09:27:20;;;;;;;4.47;2.47;;;;;;;;;;5155030;27;20037;-88
2023/08/05 09:30:15;;;;;;;5.40;2.60;;;;;;;;;;5170818;27;20485;-89
2023/08/05 09:33:00;;;;;;;4.68;2.55;;;;;;;;;;5151900;27;20041;-88
2023/08/05 09:35:47;;;;;;;5.28;2.30;;;;;;;;;;5143056;27;20049;-88
2023/08/05 09:38:32;;;;;;;4.65;2.33;;;;;;;;;;5156259;27;20038;-87
2023/08/05 09:41:27;;;;;;;2.97;2.38;;;;;;;;;;5149463;27;20030;-87
2023/08/05 09:44:11;;;;;;;4.15;2.40;;;;;;;;;;5149318;27;20573;-85
2023/08/05 09:47:01;;;;;;;4.05;2.20;;;21.00;99.90;;;;;;5149940;27;20069;-87
2023/08/05 09:49:49;;;;;;;4.70;2.30;;;;;;;;;;5156551;27;20122;-87
2023/08/05 09:52:34;;;;;;;4.63;2.50;;;;;;;;;;5169916;27;20045;-86
2023/08/05 09:55:19;;;;;;;3.20;2.08;;;;;;;;;;5169924;27;20509;-87
2023/08/05 09:58:10;;;;;;;4.15;2.50;;;;;;;;;;5170561;27;20045;-86
2023/08/05 10:00:55;;;;;;;4.90;2.58;;;;;;;;;;5154685;27;20045;-89
2023/08/05 10:03:40;;;;;;;5.13;2.58;;;;;;;;;;5162799;27;20100;-87
2023/08/05 10:06:25;;;;;;;4.55;2.50;;;;;;;;;;5148032;27;20032;-88
2023/08/05 10:09:11;;;;;;;4.65;4.25;;;;;;;;;;5133443;27;20058;-88
2023/08/05 10:11:56;;;;;;;4.85;2.50;;;;;;;;;;5149297;27;20030;-88
2023/08/05 10:14:41;;;;;;;5.78;2.58;;;;;;;;;;5153305;27;20045;-86
2023/08/05 10:17:27;;;;;;;6.15;2.40;;;;;;;;;;5152490;27;20030;-85
2023/08/05 10:20:13;;;;;;;4.75;2.55;;;;;;;;;;5148252;27;20042;-86
2023/08/05 10:23:08;;;;;;;6.53;2.60;;;22.00;99.90;;;;;;5119827;27;20084;-87
2023/08/05 10:25:58;;;;;;;4.18;2.67;;;;;;;;;;5148508;27;20131;-87
2023/08/05 10:28:43;;;;;;;5.68;3.30;;;;;;;;;;5143177;27;20042;-86
2023/08/05 10:31:28;;;;;;;3.22;2.40;;;;;;;;;;5122635;27;20505;-87
2023/08/05 10:34:17;;;;;;;4.78;2.50;;;;;;;;;;5138268;27;20091;-92
2023/08/05 10:37:02;;;;;;;5.50;2.90;;;;;;;;;;5147141;27;20706;-88
2023/08/05 10:39:46;;;;;;;4.45;2.80;;;;;;;;;;5143659;27;20115;-87
2023/08/05 10:42:32;;;;;;;5.03;3.08;;;;;;;;;;5139369;27;20037;-86
2023/08/05 10:45:21;;;;;;;3.83;2.67;;;;;;;;;;5150835;27;20043;-88
2023/08/05 10:48:10;;;;;;;3.80;2.40;;;;;;;;;;5135404;27;20395;-87
2023/08/05 10:50:54;;;;;;;5.47;2.40;;;;;;;;;;5134842;27;20064;-89
2023/08/05 10:53:39;;;;;;;4.03;2.45;;;;;;;;;;5118845;27;20070;-89
2023/08/05 10:56:31;;;;;;;3.47;2.53;;;;;;;;;;5153503;27;20036;-88
2023/08/05 10:59:15;;;;;;;4.18;2.80;;;;;;;;;;5136810;27;20118;-88
2023/08/05 11:02:02;;;;;;;5.57;2.70;;;;;;;;;;5152676;27;20159;-88
2023/08/05 11:04:47;;;;;;;3.80;2.47;;;;;;;;;;5152638;27;20055;-89
2023/08/05 11:07:32;;;;;;;6.25;2.60;;;;;;;;;;5134128;27;20057;-88
2023/08/05 11:10:17;;;;;;;4.05;2.50;;;;;;;;;;5134579;27;20138;-89
2023/08/05 11:13:02;;;;;;;3.63;2.42;;;;;;;;;;5118879;27;20042;-89
2023/08/05 11:16:07;;;;;;;4.78;2.90;;;;;;;;;;5118520;27;20387;-88
2023/08/05 11:18:56;;;;;;;3.58;2.60;;;;;;;;;;5125276;27;20118;-89
2023/08/05 11:21:44;;;;;;;3.90;2.58;;;;;;;;;;5154370;27;20045;-89
2023/08/05 11:24:28;;;;;;;4.93;3.28;;;;;;;;;;5138753;27;20083;-88
2023/08/05 11:27:13;;;;;;;4.50;3.03;;;;;;;;;;5139035;27;20029;-89
2023/08/05 11:29:57;;;;;;;4.80;2.60;;;;;;;;;;5154592;27;20118;-88
2023/08/05 11:32:55;;;;;;;5.28;3.20;;;;;;;;;;5135521;27;20043;-89
2023/08/05 11:35:47;;;;;;;4.75;2.95;;;;;;;;;;5136764;27;20046;-89
2023/08/05 11:38:31;;;;;;;4.97;2.78;;;;;;;;;;5133447;27;20042;-90
2023/08/05 11:41:16;;;;;;;4.80;3.22;;;;;;;;;;5152142;27;20042;-90
2023/08/05 11:44:01;;;;;;;6.43;3.58;;;;;;;;;;5135598;27;20052;-88
2023/08/05 11:46:45;;;;;;;4.47;3.25;;;;;;;;;;5132466;27;20119;-89
2023/08/05 11:49:30;;;;;;;7.30;3.60;;;;;;;;;;5133103;27;20038;-91
2023/08/05 11:52:15;;;;;;;4.72;3.20;;;;;;;;;;5142570;27;20038;-86
2023/08/05 11:55:00;;;;;;;6.25;2.95;;;;;;;;;;5140083;27;20042;-87
2023/08/05 11:57:45;;;;;;;7.93;3.05;;;;;;;;;;5140769;27;20054;-87
2023/08/05 12:00:30;;;;;;;6.15;3.28;;;;;;;;;;5122662;27;20038;-88
2023/08/05 12:03:15;;;;;;;7.43;3.55;;;;;;;;;;5137024;27;20095;-89
2023/08/05 12:06:03;;;;;;;4.97;3.33;;;;;;;;;;5138379;27;20069;-88
2023/08/05 12:08:49;;;;;;;6.50;3.85;;;;;;;;;;5153229;27;20872;-88
2023/08/05 12:11:45;;;;;;;5.95;3.92;;;;;;;;;;5153289;27;20054;-88
2023/08/05 12:14:29;;;;;;;5.18;4.03;;;;;;;;;;5160062;27;20046;-86
2023/08/05 12:17:14;;;;;;;8.88;4.22;;;;;;;;;;5153628;27;20078;-87
2023/08/05 12:19:58;;;;;;;9.43;4.85;;;;;;;;;;5153526;27;20042;-88
2023/08/05 12:22:44;;;;;;;5.60;5.05;;;;;;;;;;5119440;27;20504;-88
2023/08/05 12:25:29;;;;;;;8.48;5.35;;;;;;;;;;5132930;27;20029;-89
2023/08/05 12:28:13;;;;;;;7.18;5.18;;;;;;;;;;5136973;27;20041;-88
2023/08/05 12:30:58;;;;;;;7.95;5.28;;;;;;;;;;5132838;27;20034;-87
2023/08/05 12:33:43;;;;;;;6.25;5.15;;;;;;;;;;5135780;27;20058;-88
2023/08/05 12:36:27;;;;;;;7.78;5.70;;;;;;;;;;5141759;27;20075;-87
2023/08/05 12:39:12;;;;;;;10.32;6.65;;;;;;;;;;5150769;27;20046;-88
2023/08/05 12:41:56;;;;;;;11.05;6.90;;;;;;;;;;5152669;27;20070;-87
2023/08/05 12:44:41;;;;;;;9.73;7.38;;;;;;;;;;5137737;27;20061;-87
2023/08/05 12:47:25;;;;;;;10.60;8.02;;;;;;;;;;5133349;27;20580;-87
2023/08/05 12:50:10;;;;;;;16.35;8.88;;;;;;;;;;5131657;27;20041;-90
2023/08/05 12:52:55;;;;;;;13.52;10.10;;;;;;;;;;5123041;27;20113;-89
2023/08/05 12:55:40;;;;;;;16.02;10.43;;;;;;;;;;5147654;27;20535;-87
2023/08/05 12:58:24;;;;;;;11.63;9.70;;;;;;;;;;5135413;27;20037;-87
2023/08/05 13:01:09;;;;;;;13.32;9.98;;;;;;;;;;5140270;27;20038;-88
2023/08/05 13:03:54;;;;;;;15.90;10.57;;;;;;;;;;5118418;27;20045;-87
2023/08/05 13:06:38;;;;;;;14.40;10.68;;;;;;;;;;5152242;27;20107;-86
2023/08/05 13:09:23;;;;;;;17.25;11.02;;;;;;;;;;5152754;27;20061;-87
2023/08/05 13:12:07;;;;;;;19.10;12.13;;;;;;;;;;5132536;27;20054;-88
2023/08/05 13:14:52;;;;;;;15.07;11.30;;;;;;;;;;5116190;27;20084;-88
2023/08/05 13:17:36;;;;;;;18.40;11.88;;;;;;;;;;5116823;28;20498;-87
2023/08/05 13:20:21;;;;;;;19.30;12.57;;;;;;;;;;5116750;27;20080;-88
2023/08/05 13:23:05;;;;;;;15.65;12.52;;;;;;;;;;5102507;28;20104;-88
2023/08/05 13:25:50;;;;;;;13.90;11.57;;;;;;;;;;5131723;27;20057;-88
2023/08/05 13:28:35;;;;;;;13.73;11.40;;;;;;;;;;5132064;27;20042;-87
2023/08/05 13:31:19;;;;;;;16.25;11.20;;;;;;;;;;5116737;28;20083;-87
2023/08/05 13:34:04;;;;;;;13.07;10.15;;;;;;;;;;5116135;27;20042;-88
2023/08/05 13:36:48;;;;;;;13.25;11.68;;;;;;;;;;5131762;27;20050;-87
2023/08/05 13:39:33;;;;;;;11.85;10.65;;;;;;;;;;5132291;27;20509;-88
2023/08/05 13:42:18;;;;;;;12.88;10.43;;;;;;;;;;5116739;27;20088;-88
2023/08/05 13:45:03;;;;;;;11.77;9.80;;;;;;;;;;5131714;27;20034;-89
2023/08/05 13:47:47;;;;;;;12.23;10.07;;;;;;;;;;5122455;27;20509;-88
2023/08/05 13:50:32;;;;;;;12.07;8.82;;;;;;;;;;5107315;27;20042;-88
2023/08/05 13:53:17;;;;;;;12.75;9.43;;;;;;;;;;5116506;28;20042;-88
2023/08/05 13:56:02;;;;;;;11.05;9.18;;;;;;;;;;5132604;27;20034;-88
2023/08/05 13:58:46;;;;;;;10.82;8.57;;;;;;;;;;5135406;27;20424;-87
2023/08/05 14:01:31;;;;;;;11.48;8.80;;;;;;;;;;5127918;27;20079;-87
2023/08/05 14:04:15;;;;;;;19.05;9.07;;;;;;;;;;5144133;27;20106;-88
2023/08/05 14:07:00;;;;;;;9.48;7.43;;;;;;;;;;5135424;27;20498;-88
2023/08/05 14:09:45;;;;;;;10.13;8.23;;;;;;;;;;5134983;27;20107;-86
2023/08/05 14:12:29;;;;;;;11.00;8.20;;;;;;;;;;5120292;27;20039;-87
2023/08/05 14:15:14;;;;;;;12.25;8.23;;;;;;;;;;5135550;27;20034;-88
2023/08/05 14:17:59;;;;;;;11.63;7.65;;;;;;;;;;5135236;27;20088;-89
2023/08/05 14:20:43;;;;;;;9.98;8.32;;;;;;;;;;5143212;27;20042;-88
2023/08/05 14:23:28;;;;;;;9.60;7.75;;;;;;;;;;5156054;27;20118;-88
2023/08/05 14:26:12;;;;;;;11.40;8.45;;;;;;;;;;5156184;27;20073;-88
2023/08/05 14:28:57;;;;;;;11.50;8.00;;;;;;;;;;5155317;27;20046;-88
2023/08/05 14:31:41;;;;;;;14.60;9.38;;;;;;;;;;5156105;27;20085;-87
2023/08/05 14:34:27;;;;;;;7.32;5.72;;;;;;;;;;5156085;27;20046;-88
2023/08/05 14:37:11;;;;;;;4.50;2.05;;;;;;;;;;5140708;27;20042;-87
2023/08/05 14:39:56;;;;;;;2.83;2.33;;;;;;;;;;5159543;27;20060;-87
2023/08/05 14:42:41;;;;;;;4.05;2.30;;;;;;;;;;5152383;27;20182;-87
2023/08/05 14:45:26;;;;;;;9.50;3.47;;;;;;;;;;5107239;27;20058;-86
2023/08/05 14:48:10;;;;;;;5.45;2.85;;;;;;;;;;5120629;27;20042;-86
2023/08/05 14:50:55;;;;;;;9.52;3.88;;;;;;;;;;5134193;27;20080;-85
2023/08/05 14:53:39;;;;;;;8.75;3.20;;;;;;;;;;5134872;27;20533;-84
2023/08/05 14:56:24;;;;;;;5.28;3.20;;;;;;;;;;5134836;27;20087;-83
2023/08/05 14:59:08;;;;;;;11.75;3.90;;;;;;;;;;5118679;27;20050;-84
2023/08/05 15:01:53;;;;;;;7.03;3.60;;;;;;;;;;5134184;27;20108;-85
2023/08/05 15:04:37;;;;;;;4.32;3.35;;;;;;;;;;5148877;27;20054;-85
2023/08/05 15:07:22;;;;;;;6.47;4.22;;;;;;;;;;5134505;27;20495;-84
2023/08/05 15:10:07;;;;;;;4.55;3.75;;;;;;;;;;5118059;27;20062;-85
2023/08/05 15:12:52;;;;;;;8.43;4.88;;;;;;;;;;5134190;27;20603;-85
2023/08/05 15:15:36;;;;;;;7.75;5.13;;;;;;;;;;5119004;27;20076;-84
2023/08/05 15:18:21;;;;;;;7.75;4.88;;;;;;;;;;5104335;27;20058;-85
2023/08/05 15:21:05;;;;;;;8.07;4.78;;;;;;;;;;5118459;27;20053;-85
2023/08/05 15:23:50;;;;;;;7.05;4.55;;;;;;;;;;5134150;27;20038;-84
2023/08/05 15:26:34;;;;;;;9.00;5.28;;;;;;;;;;5134277;27;20042;-84
2023/08/05 15:29:19;;;;;;;13.73;5.88;;;;;;;;;;5133961;27;20066;-84
2023/08/05 15:32:04;;;;;;;6.18;4.97;;;;;;;;;;5133424;27;21338;-84
2023/08/05 15:34:48;;;;;;;6.60;4.88;;;;;;;;;;5104232;27;20042;-84
2023/08/05 15:37:33;;;;;;;12.35;5.80;;;;;;;;;;5118337;27;20088;-85
2023/08/05 15:40:17;;;;;;;9.05;5.00;;;;;;;;;;5106539;27;20103;-83
2023/08/05 15:43:02;;;;;;;7.72;5.10;;;;;;;;;;5130449;27;20037;-84
2023/08/05 15:45:56;;;;;;;7.20;4.97;;;;;;;;;;5114562;27;20062;-84
2023/08/05 15:48:41;;;;;;;6.35;5.18;;;;;;;;;;5144010;27;20048;-84
2023/08/05 15:51:25;;;;;;;6.82;4.88;;;;;;;;;;5129349;27;20088;-85
2023/08/05 15:54:10;;;;;;;5.90;4.93;;;;;;;;;;5121037;27;20096;-85
2023/08/05 15:56:54;;;;;;;6.78;4.80;;;;;;;;;;5122413;27;20489;-84
2023/08/05 15:59:39;;;;;;;7.93;5.63;;;;;;;;;;5144517;27;20041;-85
2023/08/05 16:02:24;;;;;;;11.00;5.78;;;;;;;;;;5132951;27;20496;-84
2023/08/05 16:05:08;;;;;;;11.70;6.43;;;;;;;;;;5133338;27;20152;-84
2023/08/05 16:07:53;;;;;;;10.30;6.32;;;;;;;;;;5134422;27;20130;-85
2023/08/05 16:10:37;;;;;;;11.30;6.60;;;;;;;;;;5134913;27;20121;-85
2023/08/05 16:13:22;;;;;;;8.98;7.07;;;;;;;;;;5148333;27;20038;-85
2023/08/05 16:16:06;;;;;;;11.15;7.20;;;;;;;;;;5107184;27;20147;-84
2023/08/05 16:18:51;;;;;;;14.77;7.32;;;;;;;;;;5133597;27;20114;-84
2023/08/05 16:21:36;;;;;;;12.35;7.28;;;;;;;;;;5118834;27;20437;-84
2023/08/05 16:24:21;;;;;;;9.55;7.22;;;;;;;;;;5116678;27;20030;-85
2023/08/05 16:27:05;;;;;;;10.60;7.50;;;;;;;;;;5132062;27;20038;-85
2023/08/05 16:29:51;;;;;;;11.32;8.07;;;;;;;;;;5110905;27;20092;-84
2023/08/05 16:32:37;;;;;;;13.23;7.47;;;;;;;;;;5116830;27;20035;-85
2023/08/05 16:35:22;;;;;;;13.10;7.65;;;;;;;;;;5115834;27;20034;-85
2023/08/05 16:38:07;;;;;;;11.25;8.00;;;;;;;;;;5132097;27;20046;-85
2023/08/05 16:40:51;;;;;;;11.10;8.27;;;;;;;;;;5133111;27;20050;-85
2023/08/05 16:43:36;;;;;;;15.05;8.60;;;;;;;;;;5133938;27;20080;-85
2023/08/05 16:46:20;;;;;;;9.77;7.60;;;;;;;;;;5121970;27;20049;-85
2023/08/05 16:49:06;;;;;;;12.18;8.55;;;;;;;;;;5139822;27;20042;-85
2023/08/05 16:51:51;;;;;;;10.43;7.78;;;;;;;;;;5128889;27;20099;-85
2023/08/05 16:54:35;;;;;;;11.70;8.63;;;;;;;;;;5130878;27;20035;-85
2023/08/05 16:57:20;;;;;;;17.08;10.48;;;;;;;;;;5122751;27;20034;-83
2023/08/05 17:00:06;;;;;;;14.57;11.30;;;;;;;;;;5143624;27;20059;-87
2023/08/05 17:02:51;;;;;;;17.23;11.05;;;;;;;;;;5122225;27;20061;-84
2023/08/05 17:05:35;;;;;;;9.52;8.50;;;;;;;;;;5137186;27;20038;-85
2023/08/05 17:08:20;;;;;;;9.85;7.95;;;;;;;;;;5151292;27;20033;-85
2023/08/05 17:11:05;;;;;;;11.45;7.07;;;;;;;;;;5135952;27;20065;-86
2023/08/05 17:13:50;;;;;;;11.25;7.32;;;;;;;;;;5136723;27;20138;-85
2023/08/05 17:16:34;;;;;;;11.73;8.65;;;;;;;;;;5151458;27;20155;-86
2023/08/05 17:19:19;;;;;;;11.43;7.90;;;;;;;;;;5136552;27;20037;-85
2023/08/05 17:22:03;;;;;;;9.50;7.80;;;;;;;;;;5137143;27;20042;-87
2023/08/05 17:24:51;;;;;;;10.27;8.30;;;;;;;;;;5152372;27;20038;-86
2023/08/05 17:27:35;;;;;;;11.30;7.90;;;;;;;;;;5152682;27;20083;-87
2023/08/05 17:30:20;;;;;;;11.15;8.02;;;;;;;;;;5136428;27;20049;-86
2023/08/05 17:33:05;;;;;;;11.82;8.18;;;;;;;;;;5125585;27;20042;-89
2023/08/05 17:35:52;;;;;;;13.93;8.95;;;;;;;;;;5156831;27;20539;-86
2023/08/05 17:38:37;;;;;;;11.40;8.20;;;;;;;;;;5156797;27;20091;-87
2023/08/05 17:41:21;;;;;;;12.13;8.45;;;;;;;;;;5123396;27;20045;-86
2023/08/05 17:44:06;;;;;;;12.70;8.00;;;;;;;;;;5120574;27;20087;-86
2023/08/05 17:46:51;;;;;;;12.98;8.00;;;;;;;;;;5141285;27;20092;-86
2023/08/05 17:49:36;;;;;;;11.25;8.52;;;;;;;;;;5132461;27;20042;-86
2023/08/05 17:52:20;;;;;;;14.95;9.13;;;;;;;;;;5135357;27;20058;-86
2023/08/05 17:55:05;;;;;;;14.68;8.15;;;;;;;;;;5136240;27;20037;-89
2023/08/05 17:57:50;;;;;;;9.38;7.47;;;;;;;;;;5153270;27;20167;-86
2023/08/05 18:00:35;;;;;;;13.90;8.55;;;;;;;;;;5138448;27;20088;-86
2023/08/05 18:03:19;;;;;;;13.38;7.65;;;;;;;;;;5139500;27;20029;-86
2023/08/05 18:06:04;;;;;;;11.35;8.15;;;;;;;;;;5152865;27;20053;-86
2023/08/05 18:08:49;;;;;;;12.38;7.97;;;;;;;;;;5156174;27;20038;-87
2023/08/05 18:11:33;;;;;;;11.98;8.68;;;;;;;;;;5155920;27;20077;-87
2023/08/05 18:14:18;;;;;;;10.88;7.57;;;;;;;;;;5155821;27;20057;-87
2023/08/05 18:17:02;;;;;;;10.63;8.60;;;;;;;;;;5156137;27;20042;-87
2023/08/05 18:19:47;;;;;;;9.52;6.60;;;;;;;;;;5140639;27;20049;-87
2023/08/05 18:22:31;;;;;;;12.20;7.47;;;;;;;;;;5139890;27;20421;-88
2023/08/05 18:25:16;;;;;;;9.43;6.57;;;;;;;;;;5155838;27;20138;-86
2023/08/05 18:28:01;;;;;;;9.57;6.47;;;;;;;;;;5156135;27;20034;-87
2023/08/05 18:30:46;;;;;;;7.85;6.57;;;;;;;;;;5155718;27;20138;-87
2023/08/05 18:33:31;;;;;;;10.57;7.25;;;;;;;;;;5155498;27;20041;-88
2023/08/05 18:36:15;;;;;;;9.20;6.57;;;;;;;;;;5140273;27;20104;-87
2023/08/05 18:39:00;;;;;;;6.90;6.07;;;;;;;;;;5155654;27;20053;-87
2023/08/05 18:41:46;;;;;;;9.10;6.10;;;;;;;;;;5118946;27;20049;-86
2023/08/05 18:44:33;;;;;;;11.10;6.75;;;;;;;;;;5133962;27;20042;-86
2023/08/05 18:47:18;;;;;;;9.07;6.90;;;;;;;;;;5155537;27;20490;-86
2023/08/05 18:50:02;;;;;;;10.27;7.18;;;;;;;;;;5134971;27;20092;-86
2023/08/05 18:52:47;;;;;;;13.90;9.95;;;;;;;;;;5134613;27;20444;-85
2023/08/05 18:55:31;;;;;;;10.07;7.25;;;;;;;;;;5118704;27;20433;-85
2023/08/05 18:58:17;;;;;;;9.73;6.63;;;;;;;;;;5150292;27;20046;-86
2023/08/05 19:01:07;;;;;;;10.30;7.20;;;;;;;;;;5126359;27;20106;-86
2023/08/05 19:03:51;;;;;;;8.60;6.43;;;;;;;;;;5139428;27;20131;-85
2023/08/05 19:06:36;;;;;;;9.80;7.25;;;;;;;;;;5140141;27;20069;-86
2023/08/05 19:09:21;;;;;;;8.65;6.63;;;;;;;;;;5146523;27;20065;-86
2023/08/05 19:12:05;;;;;;;10.07;6.43;;;;;;;;;;5128924;27;20497;-87
2023/08/05 19:14:50;;;;;;;11.23;7.95;;;;;;;;;;5130980;27;20045;-86
2023/08/05 19:17:35;;;;;;;10.20;7.05;;;;;;;;;;5134807;27;20042;-87
2023/08/05 19:20:20;;;;;;;10.85;6.65;;;;;;;;;;5136093;27;20517;-87
2023/08/05 19:23:06;;;;;;;11.20;6.75;;;;;;;;;;5148160;27;20037;-87
2023/08/05 19:25:50;;;;;;;9.38;6.63;;;;;;;;;;5134759;27;20072;-88
2023/08/05 19:28:35;;;;;;;11.40;7.13;;;;;;;;;;5118975;27;20041;-86
2023/08/05 19:31:19;;;;;;;7.72;6.68;;;;;;;;;;5148439;27;20037;-87
2023/08/05 19:34:05;;;;;;;9.27;7.03;;;;;;;;;;5138752;27;20053;-86
2023/08/05 19:36:49;;;;;;;9.85;6.97;;;;;;;;;;5135321;27;20046;-86
2023/08/05 19:39:35;;;;;;;11.60;6.85;;;;;;;;;;5131465;27;20048;-86
2023/08/05 19:42:20;;;;;;;10.68;7.53;;;;;;;;;;5129951;27;20100;-85
2023/08/05 19:45:05;;;;;;;9.00;6.65;;;;;;;;;;5130265;27;20038;-87
2023/08/05 19:47:49;;;;;;;11.32;6.70;;;;;;;;;;5149763;27;20046;-87
2023/08/05 19:50:36;;;;;;;11.27;7.50;;;;;;;;;;5150603;27;20049;-87
2023/08/05 19:53:20;;;;;;;9.88;7.28;;;;;;;;;;5143336;27;20081;-87
2023/08/05 19:56:05;;;;;;;11.50;8.07;;;;;;;;;;5147964;27;20091;-86
2023/08/05 19:58:50;;;;;;;11.40;7.25;;;;;;;;;;5127158;27;20868;-87
2023/08/05 20:01:34;;;;;;;13.00;7.63;;;;;;;;;;5129896;27;20054;-88
2023/08/05 20:04:19;;;;;;;9.32;7.80;;;;;;;;;;5125318;27;20049;-87
2023/08/05 20:07:04;;;;;;;9.20;7.22;;;;;;;;;;5123739;27;20415;-86
2023/08/05 20:09:48;;;;;;;9.65;7.30;;;;;;;;;;5121750;27;20868;-86
2023/08/05 20:12:33;;;;;;;10.95;7.30;;;;;;;;;;5109791;27;20049;-87
2023/08/05 20:15:17;;;;;;;12.25;7.82;;;;;;;;;;5125242;27;20509;-86
2023/08/05 20:18:02;;;;;;;12.70;8.02;;;;;;;;;;5129691;27;20042;-87
2023/08/05 20:20:48;;;;;;;10.18;7.50;;;;;;;;;;5129241;27;20510;-87
2023/08/05 20:23:33;;;;;;;10.15;8.00;;;;;;;;;;5127759;27;20046;-85
2023/08/05 20:26:19;;;;;;;13.98;8.57;;;;;;;;;;5137533;27;20110;-87
2023/08/05 20:29:05;;;;;;;13.50;8.15;;;;;;;;;;5130440;27;20038;-85
2023/08/05 20:31:53;;;;;;;13.27;8.02;;;;;;;;;;5141310;27;20110;-87
2023/08/05 20:34:38;;;;;;;11.70;8.18;;;;;;;;;;5116344;27;20084;-87
2023/08/05 20:37:22;;;;;;;13.30;8.23;;;;;;;;;;5117373;27;20080;-86
2023/08/05 20:40:08;;;;;;;14.65;9.32;;;;;;;;;;5124356;27;20041;-86
2023/08/05 20:42:53;;;;;;;17.13;10.68;;;;;;;;;;5121370;27;20050;-87
2023/08/05 20:45:38;;;;;;;11.15;9.27;;;;;;;;;;5128176;27;20041;-86
2023/08/05 20:48:22;;;;;;;16.60;10.23;;;;;;;;;;5152866;27;20041;-86
2023/08/05 20:51:07;;;;;;;16.30;9.68;;;;;;;;;;5148167;27;20167;-86
2023/08/05 20:53:52;;;;;;;18.70;11.20;;;;;;;;;;5147197;27;20459;-86
2023/08/05 20:56:36;;;;;;;18.00;10.55;;;;;;;;;;5133357;27;20038;-85
2023/08/05 20:59:21;;;;;;;16.80;10.73;;;;;;;;;;5148135;27;20061;-87
2023/08/05 21:02:06;;;;;;;18.67;11.75;;;;;;;;;;5144601;27;20038;-86
2023/08/05 21:04:50;;;;;;;16.52;11.55;;;;;;;;;;5105008;27;20037;-87
2023/08/05 21:07:35;;;;;;;20.45;12.30;;;;;;;;;;5133877;27;20092;-86
2023/08/05 21:10:19;;;;;;;19.15;12.50;;;;;;;;;;5130743;27;20460;-87
2023/08/05 21:13:04;;;;;;;20.77;12.10;;;;;;;;;;5102804;28;20062;-87
2023/08/05 21:15:48;;;;;;;18.30;12.25;;;;;;;;;;5131808;27;20101;-87
2023/08/05 21:18:33;;;;;;;16.00;11.45;;;;;;;;;;5145551;27;20049;-86
2023/08/05 21:21:19;;;;;;;17.17;12.63;;;;;;;;;;5132425;27;20050;-87
2023/08/05 21:24:03;;;;;;;22.15;11.93;;;;;;;;;;5116483;27;20046;-86
2023/08/05 21:26:48;;;;;;;21.38;13.20;;;;;;;;;;5131892;27;20054;-86
2023/08/05 21:29:35;;;;;;;16.73;11.82;;;;;;;;;;5132233;27;20107;-87
2023/08/05 21:32:20;;;;;;;18.33;12.52;;;;;;;;;;5132317;27;20038;-87
2023/08/05 21:35:04;;;;;;;19.23;12.63;;;;;;;;;;5116495;28;20436;-87
2023/08/05 21:37:49;;;;;;;21.75;13.00;;;;;;;;;;5116078;27;20039;-87